Time;durP1;ratioP1;P1;durP2;ratioP2;P2;SDS_P1;SDS_P2;PMS_P1;PMS_P2;Temp;Humidity;BMP_temperature;BMP_pressure;BME280_temperature;BME280_humidity;BME280_pressure;Samples;Min_cycle;Max_cycle;Signal;HPM_P1;HPM_P2
2023/08/04 00:01:06;;;;;;;2.88;2.00;;;;;;;;;;4976197;28;20031;-66
2023/08/04 00:03:32;;;;;;;3.53;2.08;;;;;;;;;;4976158;28;20054;-70
2023/08/04 00:05:57;;;;;;;3.28;1.98;;;;;;;;;;4975869;28;20027;-71
2023/08/04 00:08:23;;;;;;;5.18;1.90;;;;;;;;;;4976010;28;20031;-67
2023/08/04 00:10:49;;;;;;;3.13;2.00;;;;;;;;;;4974392;28;20065;-66
2023/08/04 00:13:14;;;;;;;5.43;2.10;;;;;;;;;;4975887;28;20114;-68
2023/08/04 00:15:40;;;;;;;4.30;2.10;;;;;;;;;;4975904;28;20054;-69
2023/08/04 00:18:05;;;;;;;3.38;2.00;;;;;;;;;;4975767;28;20027;-69
2023/08/04 00:20:31;;;;;;;3.70;1.90;;;;;;;;;;4975698;28;20518;-69
2023/08/04 00:22:56;;;;;;;3.90;2.00;;;;;;;;;;4975756;28;20392;-66
2023/08/04 00:25:21;;;;;;;3.17;2.35;;;;;;;;;;4974187;28;20440;-68
2023/08/04 00:27:47;;;;;;;4.30;2.08;;;;;;;;;;4975471;28;20035;-66
2023/08/04 00:30:12;;;;;;;4.75;2.17;;;;;;;;;;4975454;28;20454;-67
2023/08/04 00:32:38;;;;;;;7.43;2.40;;;;;;;;;;4975608;28;20039;-68
2023/08/04 00:35:05;;;;;;;3.75;2.10;;;;;;;;;;4975239;28;20488;-73
2023/08/04 00:37:32;;;;;;;4.97;2.10;;;;;;;;;;4975478;28;20073;-67
2023/08/04 00:39:58;;;;;;;6.25;2.03;;;;;;;;;;4974748;28;20026;-70
2023/08/04 00:42:23;;;;;;;3.42;2.10;;;;;;;;;;4975017;28;20027;-66
2023/08/04 00:44:49;;;;;;;3.67;1.90;;;;;;;;;;4975220;28;20019;-68
2023/08/04 00:47:14;;;;;;;6.97;2.22;;;;;;;;;;4975195;28;20487;-71
2023/08/04 00:49:40;;;;;;;5.53;2.00;;;;;;;;;;4974994;28;20046;-67
2023/08/04 00:52:08;;;;;;;6.70;2.08;;;;;;;;;;4973820;28;20027;-66
2023/08/04 00:54:33;;;;;;;8.73;2.35;;;;;;;;;;4974732;28;20101;-69
2023/08/04 00:56:59;;;;;;;4.40;2.22;;;;;;;;;;4974739;28;20500;-66
2023/08/04 00:59:25;;;;;;;6.13;2.33;;;;;;;;;;4973754;28;20042;-67
2023/08/04 01:01:51;;;;;;;4.93;2.20;;;;;;;;;;4974815;28;20113;-73
2023/08/04 01:04:18;;;;;;;4.57;2.10;;;;;;;;;;4974856;28;20081;-66
2023/08/04 01:07:05;;;;;;;2.92;2.17;;;;;;;;;;4974896;28;20035;-65
2023/08/04 01:09:33;;;;;;;2.80;2.03;;;;;;;;;;4974558;28;20033;-66
2023/08/04 01:12:09;;;;;;;4.03;2.08;;;;;;;;;;4974507;28;20031;-66
2023/08/04 01:14:35;;;;;;;2.80;2.15;;;;;;;;;;4973442;28;20531;-66
2023/08/04 01:17:22;;;;;;;4.78;2.10;;;;;;;;;;4974841;28;20030;-66
2023/08/04 01:19:48;;;;;;;4.43;2.20;;;;;;;;;;4974562;28;20034;-68
2023/08/04 01:22:13;;;;;;;2.60;2.00;;;;;;;;;;4974251;28;20035;-70
2023/08/04 01:24:39;;;;;;;3.45;2.10;;;;;;;;;;4974628;28;20114;-67
2023/08/04 01:27:05;;;;;;;3.13;2.10;;;;;;;;;;4974530;28;20041;-72
2023/08/04 01:29:31;;;;;;;4.78;1.80;;;;;;;;;;4974552;28;20077;-70
2023/08/04 01:31:57;;;;;;;7.32;2.10;;;;;;;;;;4974347;28;20035;-67
2023/08/04 01:34:24;;;;;;;2.40;1.88;;;;;;;;;;4974097;28;20041;-66
2023/08/04 01:36:49;;;;;;;3.42;2.05;;;;;;;;;;4974170;28;20485;-66
2023/08/04 01:39:15;;;;;;;3.92;2.20;;;;;;;;;;4974356;28;20030;-70
2023/08/04 01:41:40;;;;;;;4.40;2.22;;;;;;;;;;4974242;28;20045;-74
2023/08/04 01:44:05;;;;;;;6.55;2.03;;;;;;;;;;4974116;28;20059;-68
2023/08/04 01:46:31;;;;;;;2.88;1.95;;;;;;;;;;4974009;28;20389;-70
2023/08/04 01:48:56;;;;;;;3.38;2.25;;;;;;;;;;4974112;28;20050;-67
2023/08/04 01:51:22;;;;;;;3.75;1.90;;;;;;;;;;4973807;28;20031;-71
2023/08/04 01:53:47;;;;;;;3.90;2.22;;;;;;;;;;4973859;28;20106;-74
2023/08/04 01:56:12;;;;;;;4.90;2.10;;;;;;;;;;4974074;28;20027;-74
2023/08/04 01:58:38;;;;;;;3.40;1.80;;;;;;;;;;4973918;28;20465;-68
2023/08/04 02:01:03;;;;;;;2.10;1.70;;;;;;;;;;4974051;28;20540;-73
2023/08/04 02:03:28;;;;;;;3.83;1.70;;;;;;;;;;4973967;28;20034;-66
2023/08/04 02:05:54;;;;;;;2.85;1.85;;;;;;;;;;4973647;28;20037;-72
2023/08/04 02:08:19;;;;;;;4.15;1.60;;;;;;;;;;4973272;28;20381;-68
2023/08/04 02:10:49;;;;;;;3.53;1.80;;;;;;;;;;4973959;28;20027;-66
2023/08/04 02:13:14;;;;;;;2.55;1.63;;;;;;;;;;4973687;28;20023;-71
2023/08/04 02:15:40;;;;;;;4.03;1.70;;;;;;;;;;4973936;28;20093;-66
2023/08/04 02:18:05;;;;;;;3.15;1.60;;;;;;;;;;4973623;28;20031;-67
2023/08/04 02:20:30;;;;;;;4.07;1.95;;;;;;;;;;4973685;28;20408;-66
2023/08/04 02:22:56;;;;;;;3.63;2.10;;;;;;;;;;4973853;28;20038;-67
2023/08/04 02:25:21;;;;;;;4.47;1.52;;;;;;;;;;4973828;28;20033;-67
2023/08/04 02:27:47;;;;;;;7.20;1.85;;;;;;;;;;4973732;28;20066;-66
2023/08/04 02:30:12;;;;;;;3.60;1.92;;;;;;;;;;4973762;28;20031;-66
2023/08/04 02:32:38;;;;;;;5.97;2.78;;;;;;;;;;4973790;28;20037;-66
2023/08/04 02:35:03;;;;;;;4.32;1.85;;;;;;;;;;4973331;28;20027;-66
2023/08/04 02:37:29;;;;;;;5.10;2.10;;;;;;;;;;4973767;28;20576;-68
2023/08/04 02:39:54;;;;;;;2.63;1.67;;;;;;;;;;4973535;28;20342;-66
2023/08/04 02:42:20;;;;;;;16.02;2.88;;;;;;;;;;4973500;28;20027;-66
2023/08/04 02:44:45;;;;;;;4.43;1.95;;;;;;;;;;4973046;28;20384;-67
2023/08/04 02:47:11;;;;;;;3.42;1.80;;;;;;;;;;4973380;28;20030;-66
2023/08/04 02:49:36;;;;;;;3.30;1.77;;;;;;;;;;4971687;28;20051;-66
2023/08/04 02:52:04;;;;;;;5.90;2.05;;;;;;;;;;4973452;28;20551;-71
2023/08/04 02:54:29;;;;;;;4.47;2.00;;;;;;;;;;4973050;28;20035;-69
2023/08/04 02:56:55;;;;;;;2.97;1.50;;;;;;;;;;4973444;28;20089;-66
2023/08/04 02:59:20;;;;;;;6.65;1.90;;;;;;;;;;4973593;28;20027;-66
2023/08/04 03:01:46;;;;;;;5.35;1.88;;;;;;;;;;4973464;28;20093;-67
2023/08/04 03:04:12;;;;;;;2.97;1.90;;;;;;;;;;4972929;28;20046;-66
2023/08/04 03:06:38;;;;;;;2.88;1.90;;;;;;;;;;4973367;28;20030;-66
2023/08/04 03:09:04;;;;;;;4.40;1.80;;;;;;;;;;4973369;28;20074;-66
2023/08/04 03:11:29;;;;;;;4.05;2.08;;;;;;;;;;4973470;28;20030;-69
2023/08/04 03:13:55;;;;;;;5.25;2.03;;;;;;;;;;4973137;28;20033;-69
2023/08/04 03:16:20;;;;;;;3.83;1.85;;;;;;;;;;4973323;28;20014;-66
2023/08/04 03:18:45;;;;;;;4.57;1.75;;;;;;;;;;4974464;28;20027;-72
2023/08/04 03:21:11;;;;;;;6.47;1.75;;;;;;;;;;4976872;28;20054;-68
2023/08/04 03:23:36;;;;;;;7.72;2.00;;;;;;;;;;4976461;28;20030;-69
2023/08/04 03:26:02;;;;;;;2.80;1.65;;;;;;;;;;4976373;28;20030;-72
2023/08/04 03:28:27;;;;;;;3.97;1.92;;;;;;;;;;4976600;28;20023;-66
2023/08/04 03:30:53;;;;;;;5.75;1.80;;;;;;;;;;4976685;28;20468;-66
2023/08/04 03:33:18;;;;;;;5.00;2.00;;;;;;;;;;4976212;28;20086;-71
2023/08/04 03:35:44;;;;;;;2.88;1.88;;;;;;;;;;4976598;28;20121;-72
2023/08/04 03:38:11;;;;;;;4.07;1.80;;;;;;;;;;4975122;28;20023;-69
2023/08/04 03:40:36;;;;;;;4.28;1.80;;;;;;;;;;4975943;28;20027;-69
2023/08/04 03:43:02;;;;;;;4.40;1.80;;;;;;;;;;4976363;28;20027;-67
2023/08/04 03:45:27;;;;;;;4.10;1.90;;;;;;;;;;4976207;28;20034;-66
2023/08/04 03:47:53;;;;;;;4.57;1.80;;;;;;;;;;4975773;28;20058;-69
2023/08/04 03:50:18;;;;;;;4.35;1.85;;;;;;;;;;4975984;28;20369;-66
2023/08/04 03:52:44;;;;;;;7.43;1.88;;;;;;;;;;4976303;28;20355;-69
2023/08/04 03:55:09;;;;;;;6.18;2.00;;;;;;;;;;4976063;28;20070;-66
2023/08/04 03:57:34;;;;;;;4.43;2.00;;;;;;;;;;4976029;28;20027;-66
2023/08/04 04:00:03;;;;;;;2.92;1.60;;;;;;;;;;4975992;28;20022;-69
2023/08/04 04:02:28;;;;;;;6.22;1.98;;;;;;;;;;4975938;28;20089;-68
2023/08/04 04:04:53;;;;;;;7.57;1.98;;;;;;;;;;4976079;28;20432;-66
2023/08/04 04:07:19;;;;;;;3.65;1.67;;;;;;;;;;4975820;28;20041;-71
2023/08/04 04:09:44;;;;;;;8.20;3.10;;;;;;;;;;4975752;28;20030;-69
2023/08/04 04:12:10;;;;;;;3.17;2.22;;;;;;;;;;4975696;28;20023;-66
2023/08/04 04:14:35;;;;;;;6.30;2.00;;;;;;;;;;4975774;28;20019;-67
2023/08/04 04:17:02;;;;;;;5.43;2.05;;;;;;;;;;4974097;28;20058;-66
2023/08/04 04:19:28;;;;;;;4.60;1.80;;;;;;;;;;4975971;28;20027;-66
2023/08/04 04:21:53;;;;;;;4.32;2.08;;;;;;;;;;4975633;28;20053;-66
2023/08/04 04:24:18;;;;;;;3.22;1.90;;;;;;;;;;4975420;28;20392;-68
2023/08/04 04:26:44;;;;;;;6.07;2.13;;;;;;;;;;4975536;28;20113;-66
2023/08/04 04:29:09;;;;;;;3.92;2.08;;;;;;;;;;4975422;28;20093;-66
2023/08/04 04:31:36;;;;;;;3.50;2.08;;;;;;;;;;4974817;28;20472;-66
2023/08/04 04:34:02;;;;;;;8.75;2.30;;;;;;;;;;4975053;28;20027;-73
2023/08/04 04:36:27;;;;;;;3.45;1.90;;;;;;;;;;4975384;28;20023;-69
2023/08/04 04:38:53;;;;;;;6.72;2.17;;;;;;;;;;4975081;28;20461;-66
2023/08/04 04:41:18;;;;;;;4.50;1.98;;;;;;;;;;4975016;28;20507;-68
2023/08/04 04:43:43;;;;;;;2.83;1.85;;;;;;;;;;4975172;28;20033;-67
2023/08/04 04:46:10;;;;;;;3.55;1.80;;;;;;;;;;4974418;28;20026;-66
2023/08/04 04:48:36;;;;;;;5.10;1.90;;;;;;;;;;4974801;28;20492;-65
2023/08/04 04:51:01;;;;;;;7.22;2.08;;;;;;;;;;4975017;28;20033;-66
2023/08/04 04:53:27;;;;;;;5.45;2.00;;;;;;;;;;4974995;28;20034;-66
2023/08/04 04:55:52;;;;;;;7.18;2.08;;;;;;;;;;4974936;28;20051;-66
2023/08/04 04:58:18;;;;;;;3.70;1.98;;;;;;;;;;4974512;28;20519;-68
2023/08/04 05:00:43;;;;;;;3.60;2.00;;;;;;;;;;4973555;28;20391;-65
2023/08/04 05:03:10;;;;;;;2.63;1.60;;;;;;;;;;4974895;28;20465;-65
2023/08/04 05:05:36;;;;;;;4.20;1.80;;;;;;;;;;4974771;28;20089;-66
2023/08/04 05:08:02;;;;;;;4.03;1.90;;;;;;;;;;4974536;28;20415;-66
2023/08/04 05:10:27;;;;;;;5.97;2.00;;;;;;;;;;4974685;28;20023;-66
2023/08/04 05:12:53;;;;;;;4.65;2.00;;;;;;;;;;4974433;28;20034;-65
2023/08/04 05:15:18;;;;;;;3.17;1.70;;;;;;;;;;4974676;28;20027;-66
2023/08/04 05:17:47;;;;;;;5.68;1.70;;;;;;;;;;4974652;28;20033;-66
2023/08/04 05:20:13;;;;;;;4.55;1.90;;;;;;;;;;4974661;28;20031;-70
2023/08/04 05:22:39;;;;;;;2.88;1.88;;;;;;;;;;4974548;28;20495;-66
2023/08/04 05:25:05;;;;;;;4.60;1.83;;;;;;;;;;4974583;28;20030;-66
2023/08/04 05:27:31;;;;;;;3.70;1.92;;;;;;;;;;4974441;28;20038;-65
2023/08/04 05:29:56;;;;;;;4.53;1.80;;;;;;;;;;4974192;28;20396;-67
2023/08/04 05:32:22;;;;;;;5.03;1.90;;;;;;;;;;4974318;28;20089;-65
2023/08/04 05:34:47;;;;;;;3.80;1.90;;;;;;;;;;4974270;28;20035;-68
2023/08/04 05:37:12;;;;;;;4.53;1.88;;;;;;;;;;4974298;28;20034;-65
2023/08/04 05:39:38;;;;;;;5.05;1.80;;;;;;;;;;4974171;28;20019;-65
2023/08/04 05:42:03;;;;;;;4.05;1.92;;;;;;;;;;4973390;28;20035;-65
2023/08/04 05:44:29;;;;;;;5.32;1.85;;;;;;;;;;4973801;28;20476;-66
2023/08/04 05:46:55;;;;;;;5.30;2.00;;;;;;;;;;4974072;28;20027;-65
2023/08/04 05:49:21;;;;;;;5.03;1.92;;;;;;;;;;4973870;28;20489;-66
2023/08/04 05:51:47;;;;;;;6.15;1.90;;;;;;;;;;4974229;28;20054;-65
2023/08/04 05:54:12;;;;;;;7.55;2.35;;;;;;;;;;4973700;28;20523;-65
2023/08/04 05:56:37;;;;;;;9.55;2.00;;;;;;;;;;4974144;28;20030;-66
2023/08/04 05:59:03;;;;;;;4.47;1.90;;;;;;;;;;4973506;28;20465;-65
2023/08/04 06:01:29;;;;;;;6.32;1.83;;;;;;;;;;4974054;28;20044;-66
2023/08/04 06:03:54;;;;;;;2.92;1.65;;;;;;;;;;4973832;28;20420;-65
2023/08/04 06:06:20;;;;;;;5.82;2.00;;;;;;;;;;4973733;28;20039;-65
2023/08/04 06:08:46;;;;;;;3.85;2.05;;;;;;;;;;4973965;28;20456;-67
2023/08/04 06:11:12;;;;;;;6.95;1.67;;;;;;;;;;4973788;28;20031;-65
2023/08/04 06:13:38;;;;;;;3.38;1.55;;;;;;;;;;4973357;28;20023;-65
2023/08/04 06:16:03;;;;;;;3.75;1.70;;;;;;;;;;4973782;28;20037;-65
2023/08/04 06:18:29;;;;;;;3.30;1.40;;;;;;;;;;4973722;28;20025;-66
2023/08/04 06:20:54;;;;;;;3.80;1.67;;;;;;;;;;4973768;28;20023;-65
2023/08/04 06:23:20;;;;;;;2.72;1.55;;;;;;;;;;4972361;28;20022;-66
2023/08/04 06:25:45;;;;;;;5.43;1.63;;;;;;;;;;4973549;28;20034;-66
2023/08/04 06:28:10;;;;;;;9.30;1.80;;;;;;;;;;4972831;28;20019;-66
2023/08/04 06:30:36;;;;;;;4.32;1.85;;;;;;;;;;4973792;28;20026;-67
2023/08/04 06:33:02;;;;;;;3.55;1.80;;;;;;;;;;4973615;28;20039;-66
2023/08/04 06:35:27;;;;;;;4.72;1.90;;;;;;;;;;4973501;28;20381;-66
2023/08/04 06:37:53;;;;;;;2.80;1.60;;;;;;;;;;4973501;28;20375;-67
2023/08/04 06:40:18;;;;;;;2.72;1.30;;;;;;;;;;4973437;28;20535;-68
2023/08/04 06:42:43;;;;;;;4.80;1.60;;;;;;;;;;4973346;28;20123;-67
2023/08/04 06:45:10;;;;;;;3.22;1.42;;;;;;;;;;4971999;28;20022;-67
2023/08/04 06:47:35;;;;;;;2.35;1.10;;;;;;;;;;4973528;28;20113;-68
2023/08/04 06:50:01;;;;;;;2.13;1.23;;;;;;;;;;4972871;28;20118;-66
2023/08/04 06:52:27;;;;;;;3.35;1.55;;;;;;;;;;4973258;28;20035;-66
2023/08/04 06:54:53;;;;;;;3.00;1.40;;;;;;;;;;4976444;28;20034;-66
2023/08/04 06:57:19;;;;;;;8.82;2.03;;;;;;;;;;4977040;28;20023;-65
2023/08/04 06:59:44;;;;;;;3.13;1.63;;;;;;;;;;4977240;28;20034;-66
2023/08/04 07:02:10;;;;;;;3.10;1.50;;;;;;;;;;4976929;28;20027;-66
2023/08/04 07:04:35;;;;;;;3.53;1.45;;;;;;;;;;4977123;28;20031;-65
2023/08/04 07:07:00;;;;;;;1.88;1.40;;;;;;;;;;4976699;28;20031;-66
2023/08/04 07:09:27;;;;;;;3.42;1.70;;;;;;;;;;4976919;28;20464;-67
2023/08/04 07:11:53;;;;;;;3.55;1.83;;;;;;;;;;4976452;28;20102;-66
2023/08/04 07:14:18;;;;;;;4.18;1.67;;;;;;;;;;4976511;28;20113;-66
2023/08/04 07:16:46;;;;;;;2.95;1.95;;;;;;;;;;4976938;28;20035;-67
2023/08/04 07:19:12;;;;;;;4.72;1.90;;;;;;;;;;4976726;28;20118;-66
2023/08/04 07:21:38;;;;;;;2.72;1.52;;;;;;;;;;4976934;28;20054;-66
2023/08/04 07:24:03;;;;;;;4.50;1.70;;;;;;;;;;4976286;28;20451;-65
2023/08/04 07:26:30;;;;;;;2.40;1.30;;;;;;;;;;4976406;28;20102;-67
2023/08/04 07:28:56;;;;;;;3.25;1.85;;;;;;;;;;4976072;28;20465;-66
2023/08/04 07:31:21;;;;;;;3.47;1.80;;;;;;;;;;4976667;28;20034;-68
2023/08/04 07:33:46;;;;;;;2.33;1.75;;;;;;;;;;4976386;28;20038;-66
2023/08/04 07:36:12;;;;;;;3.47;1.95;;;;;;;;;;4976510;28;20385;-67
2023/08/04 07:38:38;;;;;;;3.05;1.98;;;;;;;;;;4976502;28;20106;-65
2023/08/04 07:41:03;;;;;;;3.35;1.85;;;;;;;;;;4976289;28;20050;-65
2023/08/04 07:43:29;;;;;;;3.05;1.73;;;;;;;;;;4976454;28;20030;-65
2023/08/04 07:45:54;;;;;;;4.80;2.22;;;;;;;;;;4976205;28;20027;-65
2023/08/04 07:48:21;;;;;;;2.78;1.50;;;;;;;;;;4976186;28;20078;-65
2023/08/04 07:50:48;;;;;;;3.60;1.60;;;;;;;;;;4976234;28;20031;-65
2023/08/04 07:53:13;;;;;;;3.33;1.60;;;;;;;;;;4976251;28;20035;-65
2023/08/04 07:55:39;;;;;;;4.22;1.50;;;;;;;;;;4976223;28;20477;-65
2023/08/04 07:58:08;;;;;;;3.88;1.60;;;;;;;;;;4976002;28;20037;-65
2023/08/04 08:00:34;;;;;;;2.50;1.77;;;;;;;;;;4976130;28;20477;-65
2023/08/04 08:03:00;;;;;;;4.47;1.67;;;;;;;;;;4976043;28;20046;-65
2023/08/04 08:05:25;;;;;;;5.18;1.80;;;;;;;;;;4975165;28;20030;-66
2023/08/04 08:07:50;;;;;;;4.95;1.70;;;;;;;;;;4975949;28;20031;-66
2023/08/04 08:10:17;;;;;;;3.08;1.70;;;;;;;;;;4975642;28;20122;-65
2023/08/04 08:12:42;;;;;;;4.75;1.70;;;;;;;;;;4975731;28;20054;-65
2023/08/04 08:15:08;;;;;;;3.47;1.67;;;;;;;;;;4976006;28;20027;-68
2023/08/04 08:17:33;;;;;;;2.97;1.50;;;;;;;;;;4975988;28;20027;-65
2023/08/04 08:19:59;;;;;;;4.25;1.40;;;;;;;;;;4975820;28;20027;-66
2023/08/04 08:22:24;;;;;;;4.82;1.75;;;;;;;;;;4975627;28;20406;-65
2023/08/04 08:24:54;;;;;;;6.70;1.55;;;;;;;;;;4975635;28;20033;-65
2023/08/04 08:27:19;;;;;;;3.00;1.90;;;;;;;;;;4975422;28;20080;-65
2023/08/04 08:29:45;;;;;;;6.93;2.03;;;;;;;;;;4975671;28;20650;-65
2023/08/04 08:32:10;;;;;;;4.75;1.85;;;;;;;;;;4975442;28;20019;-65
2023/08/04 08:34:35;;;;;;;6.50;1.95;;;;;;;;;;4974798;28;20492;-66
2023/08/04 08:37:02;;;;;;;8.05;2.30;;;;;;;;;;4975233;28;20030;-66
2023/08/04 08:39:29;;;;;;;3.33;2.08;;;;;;;;;;4974536;28;20459;-66
2023/08/04 08:41:57;;;;;;;3.65;2.00;;;;;;;;;;4974847;28;20637;-65
2023/08/04 08:44:22;;;;;;;5.43;2.10;;;;;;;;;;4974071;28;20031;-65
2023/08/04 08:46:48;;;;;;;4.13;2.00;;;;;;;;;;4973953;28;20034;-65
2023/08/04 08:49:13;;;;;;;2.92;1.80;;;;;;;;;;4966556;28;20487;-65
2023/08/04 08:51:44;;;;;;;4.25;2.50;;;;;;;;;;4973303;28;20101;-66
2023/08/04 08:54:10;;;;;;;5.35;2.20;;;;;;;;;;4974020;28;20046;-65
2023/08/04 08:56:36;;;;;;;3.58;1.67;;;;;;;;;;4973427;28;20116;-65
2023/08/04 08:59:01;;;;;;;5.38;2.20;;;;;;;;;;4974294;28;20025;-65
2023/08/04 09:01:28;;;;;;;3.33;1.60;;;;;;;;;;4973536;28;20027;-65
2023/08/04 09:03:54;;;;;;;5.25;2.00;;;;;;;;;;4973952;28;20038;-66
2023/08/04 09:06:19;;;;;;;5.22;2.30;;;;;;;;;;4973930;28;20039;-66
2023/08/04 09:08:45;;;;;;;3.75;1.70;;;;;;;;;;4974429;28;20113;-66
2023/08/04 09:11:11;;;;;;;5.82;1.90;;;;;;;;;;4974573;28;20122;-65
2023/08/04 09:13:41;;;;;;;5.90;1.70;;;;;;;;;;4973999;28;20481;-66
2023/08/04 09:16:08;;;;;;;3.15;1.70;;;;;;;;;;4973627;28;20122;-66
2023/08/04 09:18:39;;;;;;;6.13;1.77;;;;;;;;;;4972993;28;20027;-66
2023/08/04 09:21:07;;;;;;;4.57;1.92;;;;;;;;;;4974068;28;20023;-71
2023/08/04 09:23:35;;;;;;;4.20;1.77;;;;;;;;;;4974232;28;20506;-66
2023/08/04 09:26:00;;;;;;;3.95;1.70;;;;;;;;;;4974367;28;20058;-66
2023/08/04 09:28:27;;;;;;;4.50;1.60;;;;;;;;;;4974072;28;20027;-65
2023/08/04 09:31:03;;;;;;;3.17;1.60;;;;;;;;;;4974382;28;20038;-67
2023/08/04 09:33:28;;;;;;;6.10;1.92;;;;;;;;;;4974323;28;20033;-66
2023/08/04 09:36:09;;;;;;;8.27;1.90;;;;;;;;;;4972417;28;20027;-65
2023/08/04 09:38:36;;;;;;;4.25;1.70;;;;;;;;;;4972708;28;20571;-66
2023/08/04 09:41:02;;;;;;;4.85;1.60;;;;;;;;;;4981932;23;20051;-65
2023/08/04 09:43:28;;;;;;;5.63;1.90;;;;;;;;;;4973467;28;20045;-65
2023/08/04 09:45:59;;;;;;;5.40;1.83;;;;;;;;;;4972468;28;20054;-67
2023/08/04 09:48:26;;;;;;;7.25;1.88;;;;;;;;;;4973176;28;20125;-70
2023/08/04 09:51:05;;;;;;;6.88;2.53;;;;;;;;;;4972716;28;20022;-68
2023/08/04 09:53:33;;;;;;;7.38;1.70;;;;;;;;;;4973645;28;20527;-66
2023/08/04 09:55:59;;;;;;;5.07;1.70;;;;;;;;;;4973833;28;20424;-66
2023/08/04 09:58:25;;;;;;;5.85;1.80;;;;;;;;;;4973474;28;20086;-67
2023/08/04 10:00:51;;;;;;;3.67;1.65;;;;;;;;;;4973823;28;20027;-66
2023/08/04 10:03:16;;;;;;;7.97;1.80;;;;;;;;;;4973762;28;20030;-66
2023/08/04 10:05:42;;;;;;;3.65;1.90;;;;;;;;;;4973353;28;20034;-66
2023/08/04 10:08:08;;;;;;;5.80;1.83;;;;;;;;;;4973639;28;20031;-66
2023/08/04 10:10:33;;;;;;;5.05;1.50;;;;;;;;;;4973468;28;20119;-67
2023/08/04 10:12:59;;;;;;;3.13;1.50;;;;;;;;;;4973139;28;20506;-66
2023/08/04 10:15:25;;;;;;;6.00;1.70;;;;;;;;;;4973840;28;20532;-70
2023/08/04 10:17:50;;;;;;;5.68;1.80;;;;;;;;;;4972292;28;20114;-69
2023/08/04 10:20:16;;;;;;;6.10;1.83;;;;;;;;;;4973341;28;20113;-65
2023/08/04 10:22:43;;;;;;;5.35;1.73;;;;;;;;;;4973375;28;20027;-66
2023/08/04 10:25:14;;;;;;;7.80;1.65;;;;;;;;;;4973206;28;20084;-67
2023/08/04 10:27:49;;;;;;;4.57;1.50;;;;;;;;;;4973045;28;20045;-66
2023/08/04 10:30:15;;;;;;;7.80;1.65;;;;;;;;;;4975808;28;20431;-66
2023/08/04 10:32:41;;;;;;;5.43;1.65;;;;;;;;;;4977607;28;20077;-66
2023/08/04 10:35:18;;;;;;;5.32;1.60;;;;;;;;;;4976757;28;20027;-66
2023/08/04 10:37:58;;;;;;;4.50;1.73;;;;;;;;;;4976958;28;20034;-65
2023/08/04 10:40:28;;;;;;;3.40;1.42;;;;;;;;;;4976509;28;20507;-65
2023/08/04 10:42:59;;;;;;;5.20;1.40;;;;;;;;;;4977201;28;20045;-65
2023/08/04 10:45:49;;;;;;;9.75;1.98;;;;;;;;;;4976690;28;20114;-64
2023/08/04 10:48:14;;;;;;;3.63;1.33;;;;;;;;;;4976525;28;20058;-64
2023/08/04 10:50:40;;;;;;;3.10;1.30;;;;;;;;;;4975603;28;20530;-65
2023/08/04 10:53:05;;;;;;;5.63;1.52;;;;;;;;;;4977065;28;20062;-64
2023/08/04 10:55:33;;;;;;;3.03;1.42;;;;;;;;;;4975455;28;20496;-64
2023/08/04 10:57:58;;;;;;;2.40;1.30;;;;;;;;;;4976501;28;20019;-66
2023/08/04 11:00:24;;;;;;;7.13;1.60;;;;;;;;;;4976636;28;20035;-65
2023/08/04 11:02:49;;;;;;;3.45;1.48;;;;;;;;;;4976055;28;20483;-64
2023/08/04 11:05:15;;;;;;;3.47;1.40;;;;;;;;;;4976487;28;20110;-67
2023/08/04 11:07:47;;;;;;;2.90;1.30;;;;;;;;;;4976147;28;20023;-65
2023/08/04 11:10:12;;;;;;;4.53;1.30;;;;;;;;;;4972035;28;20023;-65
2023/08/04 11:12:38;;;;;;;4.00;1.27;;;;;;;;;;4975717;28;20110;-66
2023/08/04 11:15:05;;;;;;;7.70;1.40;;;;;;;;;;4976259;28;20114;-65
2023/08/04 11:17:30;;;;;;;2.60;1.33;;;;;;;;;;4976095;28;20563;-66
2023/08/04 11:19:56;;;;;;;5.70;1.20;;;;;;;;;;4976886;28;20113;-65
2023/08/04 11:22:23;;;;;;;4.72;1.30;;;;;;;;;;4975835;28;20027;-65
2023/08/04 11:24:50;;;;;;;3.05;1.40;;;;;;;;;;4976843;28;20035;-65
2023/08/04 11:27:16;;;;;;;3.10;1.38;;;;;;;;;;4976564;28;20042;-65
2023/08/04 11:29:42;;;;;;;3.78;1.40;;;;;;;;;;4976650;28;20035;-65
2023/08/04 11:32:10;;;;;;;4.65;1.40;;;;;;;;;;4976189;28;20448;-67
2023/08/04 11:34:39;;;;;;;7.57;1.50;;;;;;;;;;4976365;28;20031;-65
2023/08/04 11:37:04;;;;;;;4.68;1.40;;;;;;;;;;4976419;28;20508;-66
2023/08/04 11:39:30;;;;;;;3.15;1.30;;;;;;;;;;4975521;28;20027;-66
2023/08/04 11:41:56;;;;;;;3.38;1.33;;;;;;;;;;4975614;28;20388;-65
2023/08/04 11:44:22;;;;;;;8.40;1.30;;;;;;;;;;4976361;28;20460;-66
2023/08/04 11:46:47;;;;;;;4.28;1.30;;;;;;;;;;4976058;28;20495;-65
2023/08/04 11:49:14;;;;;;;2.60;1.00;;;;;;;;;;4976052;28;20039;-65
2023/08/04 11:51:43;;;;;;;3.00;1.20;;;;;;;;;;4976123;28;20023;-65
2023/08/04 11:54:23;;;;;;;3.35;1.40;;;;;;;;;;4976030;28;20019;-64
2023/08/04 11:56:56;;;;;;;4.07;1.40;;;;;;;;;;4976262;28;20153;-65
2023/08/04 11:59:22;;;;;;;3.45;1.27;;;;;;;;;;4976005;28;20022;-65
2023/08/04 12:01:47;;;;;;;3.20;1.08;;;;;;;;;;4975677;28;20026;-65
2023/08/04 12:04:24;;;;;;;4.95;1.30;;;;;;;;;;4975877;28;20424;-69
2023/08/04 12:07:04;;;;;;;2.30;1.10;;;;;;;;;;4975897;28;20361;-64
2023/08/04 12:09:30;;;;;;;6.50;1.30;;;;;;;;;;4974503;28;20031;-65
2023/08/04 12:11:55;;;;;;;5.40;1.40;;;;;;;;;;4975508;28;20026;-65
2023/08/04 12:14:21;;;;;;;5.15;1.50;;;;;;;;;;4975680;28;20031;-65
2023/08/04 12:16:53;;;;;;;2.70;1.27;;;;;;;;;;4975707;28;20023;-65
2023/08/04 12:19:20;;;;;;;3.50;1.38;;;;;;;;;;4975688;28;20034;-66
2023/08/04 12:21:46;;;;;;;4.30;1.20;;;;;;;;;;4975587;28;20133;-65
2023/08/04 12:24:12;;;;;;;2.17;1.02;;;;;;;;;;4975507;28;20054;-64
2023/08/04 12:26:38;;;;;;;6.25;1.70;;;;;;;;;;4975441;28;20066;-66
2023/08/04 12:29:03;;;;;;;3.53;1.02;;;;;;;;;;4975417;28;20077;-65
2023/08/04 12:31:29;;;;;;;3.40;1.45;;;;;;;;;;4975432;28;20122;-66
2023/08/04 12:33:54;;;;;;;3.25;1.20;;;;;;;;;;4975034;28;20023;-67
2023/08/04 12:36:20;;;;;;;5.32;1.50;;;;;;;;;;4975378;28;20035;-65
2023/08/04 12:38:46;;;;;;;2.42;1.08;;;;;;;;;;4975462;28;20030;-65
2023/08/04 12:41:12;;;;;;;3.33;1.30;;;;;;;;;;4975036;28;20046;-72
2023/08/04 12:43:37;;;;;;;2.60;1.17;;;;;;;;;;4974860;28;20023;-67
2023/08/04 12:46:03;;;;;;;5.43;1.45;;;;;;;;;;4974421;28;20048;-66
2023/08/04 12:48:28;;;;;;;2.13;1.00;;;;;;;;;;4975071;28;20023;-66
2023/08/04 12:50:54;;;;;;;4.00;1.25;;;;;;;;;;4974677;28;20023;-65
2023/08/04 12:53:20;;;;;;;4.75;1.13;;;;;;;;;;4974987;28;20023;-66
2023/08/04 12:55:45;;;;;;;5.22;1.20;;;;;;;;;;4975054;28;20027;-66
2023/08/04 12:58:11;;;;;;;3.15;1.27;;;;;;;;;;4974854;28;20162;-66
2023/08/04 13:00:36;;;;;;;7.53;1.33;;;;;;;;;;4974326;28;20053;-66
2023/08/04 13:03:01;;;;;;;2.05;1.05;;;;;;;;;;4974853;28;20038;-66
2023/08/04 13:05:27;;;;;;;2.25;1.00;;;;;;;;;;4974876;28;20093;-66
2023/08/04 13:07:52;;;;;;;3.25;1.05;;;;;;;;;;4974651;28;20023;-66
2023/08/04 13:10:18;;;;;;;2.25;1.10;;;;;;;;;;4974638;28;20045;-67
2023/08/04 13:12:43;;;;;;;2.47;1.02;;;;;;;;;;4974294;28;20023;-67
2023/08/04 13:15:09;;;;;;;3.58;1.30;;;;;;;;;;4974756;28;20023;-67
2023/08/04 13:17:34;;;;;;;1.80;0.95;;;;;;;;;;4974615;28;20031;-67
2023/08/04 13:20:00;;;;;;;3.75;1.20;;;;;;;;;;4974513;28;20065;-66
2023/08/04 13:22:25;;;;;;;5.68;1.30;;;;;;;;;;4974393;28;20477;-67
2023/08/04 13:24:51;;;;;;;2.85;1.27;;;;;;;;;;4973308;28;20484;-66
2023/08/04 13:27:16;;;;;;;4.22;1.40;;;;;;;;;;4974088;28;20043;-67
2023/08/04 13:29:41;;;;;;;3.13;1.33;;;;;;;;;;4974431;28;20023;-67
2023/08/04 13:32:07;;;;;;;4.55;1.13;;;;;;;;;;4974144;28;20117;-68
2023/08/04 13:34:33;;;;;;;5.30;1.20;;;;;;;;;;4974136;28;20031;-67
2023/08/04 13:36:58;;;;;;;2.65;1.20;;;;;;;;;;4974195;28;20030;-67
2023/08/04 13:39:24;;;;;;;2.70;1.17;;;;;;;;;;4974054;28;20023;-67
2023/08/04 13:41:49;;;;;;;3.15;1.25;;;;;;;;;;4973535;28;20054;-65
2023/08/04 13:44:15;;;;;;;3.03;1.20;;;;;;;;;;4974164;28;20034;-66
2023/08/04 13:46:40;;;;;;;2.72;1.08;;;;;;;;;;4974015;28;20034;-67
2023/08/04 13:49:06;;;;;;;3.30;1.30;;;;;;;;;;4974117;28;20031;-66
2023/08/04 13:51:31;;;;;;;5.53;1.45;;;;;;;;;;4973898;28;20166;-66
2023/08/04 13:53:57;;;;;;;3.90;0.95;;;;;;;;;;4973678;28;20082;-66
2023/08/04 13:56:22;;;;;;;1.98;1.02;;;;;;;;;;4973807;28;20448;-70
2023/08/04 13:58:50;;;;;;;4.00;1.15;;;;;;;;;;4974014;28;20054;-66
2023/08/04 14:01:16;;;;;;;3.25;1.13;;;;;;;;;;4973878;28;20019;-66
2023/08/04 14:03:41;;;;;;;4.38;1.27;;;;;;;;;;4973092;28;20037;-66
2023/08/04 14:06:07;;;;;;;2.47;1.10;;;;;;;;;;4973785;28;20114;-67
2023/08/04 14:08:32;;;;;;;3.83;1.20;;;;;;;;;;4972589;28;20031;-66
2023/08/04 14:10:58;;;;;;;2.08;1.10;;;;;;;;;;4973552;28;20027;-67
2023/08/04 14:13:23;;;;;;;2.97;1.33;;;;;;;;;;4973684;28;20058;-67
2023/08/04 14:15:48;;;;;;;2.28;1.20;;;;;;;;;;4973750;28;20031;-68
2023/08/04 14:18:14;;;;;;;5.20;1.83;;;;;;;;;;4973620;28;20023;-66
2023/08/04 14:20:40;;;;;;;3.78;1.48;;;;;;;;;;4973820;28;20031;-66
2023/08/04 14:23:06;;;;;;;3.30;1.30;;;;;;;;;;4973753;28;20027;-66
2023/08/04 14:25:31;;;;;;;4.35;1.33;;;;;;;;;;4973533;28;20499;-67
2023/08/04 14:27:57;;;;;;;2.50;1.33;;;;;;;;;;4973624;28;20027;-69
2023/08/04 14:30:22;;;;;;;3.35;1.35;;;;;;;;;;4973522;28;20435;-66
2023/08/04 14:32:47;;;;;;;4.10;1.13;;;;;;;;;;4973851;28;20484;-66
2023/08/04 14:35:13;;;;;;;2.92;1.10;;;;;;;;;;4973535;28;20030;-67
2023/08/04 14:37:39;;;;;;;3.40;1.02;;;;;;;;;;4973454;28;20396;-72